Time;durP1;ratioP1;P1;durP2;ratioP2;P2;SDS_P1;SDS_P2;PMS_P1;PMS_P2;Temp;Humidity;BMP_temperature;BMP_pressure;BME280_temperature;BME280_humidity;BME280_pressure;Samples;Min_cycle;Max_cycle;Signal;HPM_P1;HPM_P2
2022/06/14 00:02:29;;;;;;;7.68;4.22;;;;;;;20.87;52.90;93858.81;5030169;28;20092;-75
2022/06/14 00:04:55;;;;;;;4.40;3.25;;;;;;;20.74;52.96;93839.41;5033272;28;20067;-74
2022/06/14 00:07:20;;;;;;;4.18;3.35;;;;;;;20.81;53.02;93854.88;5032218;28;20606;-74
2022/06/14 00:09:45;;;;;;;5.30;3.42;;;;;;;20.72;53.23;93849.81;5032440;28;20105;-75
2022/06/14 00:12:13;;;;;;;6.60;3.45;;;;;;;20.70;52.87;93840.53;5032288;28;20492;-74
2022/06/14 00:14:39;;;;;;;4.88;3.47;;;;;;;20.42;53.08;93801.38;5033291;28;20024;-74
2022/06/14 00:17:05;;;;;;;4.30;3.22;;;;;;;20.77;52.90;93856.81;5031569;28;20036;-74
2022/06/14 00:19:30;;;;;;;3.78;3.33;;;;;;;20.67;52.89;93835.88;5028539;28;20042;-75
2022/06/14 00:22:01;;;;;;;6.53;5.03;;;;;;;20.58;53.22;93839.66;5031251;28;20049;-75
2022/06/14 00:24:27;;;;;;;6.65;3.65;;;;;;;20.69;53.10;93847.84;5030322;28;20030;-75
2022/06/14 00:26:53;;;;;;;4.00;3.55;;;;;;;20.53;53.15;93842.72;5031495;28;20041;-74
2022/06/14 00:29:18;;;;;;;4.15;3.75;;;;;;;20.49;53.85;93855.44;5030505;28;20041;-75
2022/06/14 00:31:43;;;;;;;5.03;3.85;;;;;;;20.55;53.54;93856.63;5027710;28;20100;-75
2022/06/14 00:34:09;;;;;;;5.10;3.58;;;;;;;20.45;53.60;93851.16;5030829;28;20026;-74
2022/06/14 00:36:34;;;;;;;7.40;4.25;;;;;;;20.41;53.83;93853.84;5030510;28;20028;-74
2022/06/14 00:39:03;;;;;;;4.95;3.55;;;;;;;20.47;54.01;93857.75;5028618;28;20033;-74
2022/06/14 00:41:34;;;;;;;7.55;3.97;;;;;;;20.43;54.20;93850.75;5029349;28;20033;-75
2022/06/14 00:44:00;;;;;;;4.68;3.70;;;;;;;20.34;54.42;93856.47;5030035;28;20041;-74
2022/06/14 00:46:43;;;;;;;4.82;4.00;;;;;;;20.34;54.71;93850.28;5031477;28;20024;-75
2022/06/14 00:49:18;;;;;;;5.68;4.15;;;;;;;20.27;54.85;93859.13;5029734;28;20021;-74
2022/06/14 00:51:52;;;;;;;4.15;3.50;;;;;;;20.31;54.85;93857.22;5027205;28;20060;-74
2022/06/14 00:54:25;;;;;;;4.32;3.92;;;;;;;20.07;55.01;93846.94;5037067;28;20039;-75
2022/06/14 00:56:58;;;;;;;4.45;3.40;;;;;;;20.31;54.32;93873.44;5031944;28;20068;-75
2022/06/14 00:59:34;;;;;;;4.65;3.78;;;;;;;20.29;54.66;93864.16;5028929;28;20033;-75
2022/06/14 01:02:14;;;;;;;7.53;4.28;;;;;;;19.99;54.87;93845.34;5034747;28;20143;-74
2022/06/14 01:04:41;;;;;;;5.35;3.88;;;;;;;19.96;54.99;93864.97;5030353;28;20049;-75
2022/06/14 01:07:14;;;;;;;4.93;3.60;;;;;;;20.06;55.10;93877.78;5029363;28;20029;-73
2022/06/14 01:09:47;;;;;;;3.80;3.50;;;;;;;19.99;55.55;93875.81;5033339;28;20103;-75
2022/06/14 01:12:17;;;;;;;5.72;3.63;;;;;;;19.92;55.47;93866.84;5030806;28;20363;-74
2022/06/14 01:15:04;;;;;;;4.32;3.60;;;;;;;19.95;55.58;93871.50;5031712;28;20064;-75
2022/06/14 01:17:33;;;;;;;5.95;4.25;;;;;;;19.91;55.62;93873.38;5030445;28;20045;-74
2022/06/14 01:19:59;;;;;;;6.15;4.05;;;;;;;19.79;55.56;93855.56;5030501;28;20044;-75
2022/06/14 01:22:26;;;;;;;3.92;3.55;;;;;;;19.85;55.66;93862.16;5030024;28;20053;-75
2022/06/14 01:24:53;;;;;;;5.82;3.80;;;;;;;19.83;55.88;93852.88;5031272;28;20044;-74
2022/06/14 01:27:22;;;;;;;5.32;4.35;;;;;;;19.86;55.64;93844.03;5029296;28;20060;-74
2022/06/14 01:30:18;;;;;;;6.22;4.13;;;;;;;19.77;55.74;93830.84;5030589;28;20057;-75
2022/06/14 01:32:57;;;;;;;4.93;3.60;;;;;;;19.73;55.96;93832.72;5029925;28;20040;-75
2022/06/14 01:35:26;;;;;;;4.15;3.53;;;;;;;19.88;55.97;93855.25;5028369;28;20503;-75
2022/06/14 01:37:54;;;;;;;4.38;3.55;;;;;;;19.87;55.87;93848.28;5028708;28;20049;-75
2022/06/14 01:40:44;;;;;;;4.70;3.80;;;;;;;19.84;55.67;93832.84;5029574;28;20021;-74
2022/06/14 01:43:31;;;;;;;8.50;3.58;;;;;;;19.86;56.00;93852.13;5029244;28;20024;-74
2022/06/14 01:46:08;;;;;;;4.13;3.33;;;;;;;19.88;56.05;93842.53;5036537;28;20041;-74
2022/06/14 01:48:49;;;;;;;4.45;3.40;;;;;;;19.72;55.94;93831.19;5027730;28;20093;-74
2022/06/14 01:51:51;;;;;;;6.60;3.90;;;;;;;19.89;56.12;93854.09;5029491;28;20599;-74
2022/06/14 01:54:31;;;;;;;9.13;4.22;;;;;;;19.78;56.13;93845.13;5035898;28;20029;-75
2022/06/14 01:57:32;;;;;;;4.30;3.58;;;;;;;19.82;56.22;93854.81;5027850;28;20034;-75
2022/06/14 02:00:03;;;;;;;6.38;3.70;;;;;;;19.66;55.79;93824.56;5028915;28;20033;-74
2022/06/14 02:02:34;;;;;;;4.43;3.55;;;;;;;19.59;56.00;93835.28;5035816;28;20042;-75
2022/06/14 02:05:10;;;;;;;5.22;4.10;;;;;;;19.37;56.13;93815.34;5029269;28;20508;-74
2022/06/14 02:07:42;;;;;;;4.13;3.50;;;;;;;19.73;55.88;93873.22;5029249;28;20041;-74
2022/06/14 02:10:21;;;;;;;5.30;4.10;;;;;;;19.57;56.02;93856.44;5030789;28;20124;-74
2022/06/14 02:12:49;;;;;;;5.80;3.90;;;;;;;19.58;56.13;93869.56;5029366;28;20026;-74
2022/06/14 02:15:23;;;;;;;5.25;3.70;;;;;;;19.35;56.52;93855.41;5029131;28;20038;-75
2022/06/14 02:17:59;;;;;;;4.57;3.70;;;;;;;19.41;56.96;93870.09;5027484;28;20045;-75
2022/06/14 02:20:31;;;;;;;4.75;4.20;;;;;;;19.24;57.10;93855.28;5030192;28;20188;-75
2022/06/14 02:23:03;;;;;;;5.35;3.72;;;;;;;19.35;57.31;93876.22;5028452;28;20045;-74
2022/06/14 02:25:38;;;;;;;7.90;4.28;;;;;;;19.24;57.03;93862.59;5029735;28;20088;-74
2022/06/14 02:28:08;;;;;;;;;;;;;;;19.34;57.13;93880.81;5029331;28;20028;-74
2022/06/14 02:30:55;;;;;;;6.68;4.53;;;;;;;19.32;56.61;93883.88;5030986;28;19963;-74
2022/06/14 02:33:28;;;;;;;6.65;4.82;;;;;;;19.28;56.53;93893.06;5029087;28;20053;-75
2022/06/14 02:36:00;;;;;;;5.85;4.88;;;;;;;19.01;56.82;93845.72;5028738;28;20042;-74
2022/06/14 02:38:33;;;;;;;4.63;3.83;;;;;;;18.97;56.59;93853.00;5035132;28;20543;-75
2022/06/14 02:41:06;;;;;;;4.50;4.10;;;;;;;19.12;56.94;93889.75;5031610;28;20041;-74
2022/06/14 02:43:45;;;;;;;4.32;3.88;;;;;;;18.88;57.09;93864.81;5027137;28;20454;-74
2022/06/14 02:46:25;;;;;;;5.78;4.40;;;;;;;19.10;57.11;93898.22;5028740;28;20028;-75
2022/06/14 02:48:59;;;;;;;5.53;3.97;;;;;;;19.05;57.30;93895.84;5030889;28;20033;-74
2022/06/14 02:51:59;;;;;;;4.38;3.97;;;;;;;19.05;57.54;93905.84;5027506;28;20036;-74
2022/06/14 02:54:31;;;;;;;4.60;3.75;;;;;;;18.61;57.44;93840.91;5026699;28;20033;-75
2022/06/14 02:57:13;;;;;;;5.20;4.15;;;;;;;18.97;57.81;93898.81;5026070;28;20053;-74
2022/06/14 02:59:52;;;;;;;5.25;4.47;;;;;;;18.97;57.94;93891.47;5009323;28;20041;-75
2022/06/14 03:02:52;;;;;;;5.88;4.60;;;;;;;18.97;58.25;93888.03;5011352;28;20030;-75
2022/06/14 03:05:39;;;;;;;7.88;4.80;;;;;;;18.97;58.14;93894.16;5006312;28;20035;-76
2022/06/14 03:08:14;;;;;;;5.22;4.03;;;;;;;18.92;58.12;93902.56;5020739;28;20037;-75
2022/06/14 03:10:45;;;;;;;5.72;4.13;;;;;;;18.95;58.33;93904.56;5023697;28;20042;-76
2022/06/14 03:13:29;;;;;;;6.28;4.13;;;;;;;18.92;58.16;93902.56;5023434;28;20014;-75
2022/06/14 03:16:19;;;;;;;5.45;4.20;;;;;;;18.52;58.38;93856.53;5016917;28;20029;-76
2022/06/14 03:19:20;;;;;;;9.68;4.28;;;;;;;18.89;58.33;93925.63;5036192;28;20111;-76
2022/06/14 03:22:11;;;;;;;9.05;4.13;;;;;;;18.83;58.42;93908.22;5041187;28;20049;-76
2022/06/14 03:24:40;;;;;;;8.25;4.20;;;;;;;18.92;58.64;93918.72;5032522;28;20045;-75
2022/06/14 03:27:24;;;;;;;5.53;4.35;;;;;;;18.79;59.68;93920.88;5034271;28;20107;-76
2022/06/14 03:30:00;;;;;;;7.47;5.07;;;;;;;18.92;59.33;93917.97;5037598;28;20045;-75
2022/06/14 03:32:40;;;;;;;6.93;5.90;;;;;;;18.98;59.19;93913.81;5038552;28;20097;-75
2022/06/14 03:35:11;;;;;;;6.57;5.32;;;;;;;18.87;59.34;93887.50;5036556;28;20052;-75
2022/06/14 03:37:37;;;;;;;6.90;5.25;;;;;;;18.83;59.29;93877.81;5037176;28;20424;-75
2022/06/14 03:40:08;;;;;;;5.85;5.22;;;;;;;19.02;59.52;93907.34;5034139;28;20414;-76
2022/06/14 03:42:35;;;;;;;7.07;4.97;;;;;;;19.01;59.41;93899.63;5036798;28;20105;-75
2022/06/14 03:45:02;;;;;;;7.45;5.20;;;;;;;18.82;59.94;93877.03;5035941;28;20037;-75
2022/06/14 03:47:30;;;;;;;6.05;5.18;;;;;;;18.93;60.02;93885.25;5037367;28;20022;-75
2022/06/14 03:50:20;;;;;;;6.32;4.82;;;;;;;19.18;60.41;93915.25;5035130;28;20034;-75
2022/06/14 03:53:03;;;;;;;7.63;4.90;;;;;;;19.05;61.11;93922.03;5037927;28;20046;-75
2022/06/14 03:55:39;;;;;;;12.15;5.47;;;;;;;19.02;61.58;93909.28;5033725;28;20021;-76
2022/06/14 03:58:41;;;;;;;8.38;5.30;;;;;;;19.17;61.35;93913.69;5048727;28;20077;-76
2022/06/14 04:01:22;;;;;;;9.27;5.40;;;;;;;19.10;61.04;93897.44;5035110;28;20041;-75
2022/06/14 04:04:20;;;;;;;8.55;5.65;;;;;;;19.32;60.59;93915.44;5039015;28;20025;-75
2022/06/14 04:07:10;;;;;;;8.55;5.35;;;;;;;19.32;60.71;93904.66;5034242;28;20069;-75
2022/06/14 04:09:49;;;;;;;9.57;4.85;;;;;;;19.41;60.64;93918.66;5035754;28;20053;-75
2022/06/14 04:12:39;;;;;;;10.52;6.03;;;;;;;19.53;60.43;93923.06;5038360;28;20531;-75
2022/06/14 04:15:16;;;;;;;9.23;5.90;;;;;;;19.43;60.45;93932.56;5037251;28;20036;-75
2022/06/14 04:17:51;;;;;;;5.93;5.30;;;;;;;19.53;61.33;93921.16;5036870;28;20045;-75
2022/06/14 04:20:32;;;;;;;;;;;;;;;19.54;61.57;93928.09;5038543;28;20030;-75
2022/06/14 04:23:21;;;;;;;6.13;5.00;;;;;;;19.64;61.73;93930.16;5035898;28;19922;-76
2022/06/14 04:26:00;;;;;;;8.45;3.95;;;;;;;19.84;59.97;93924.59;5036816;28;20041;-75
2022/06/14 04:29:04;;;;;;;7.15;5.00;;;;;;;19.95;60.05;93937.06;5036371;28;20016;-75
2022/06/14 04:31:46;;;;;;;5.55;3.67;;;;;;;19.87;59.08;93940.06;5014651;28;20038;-75
2022/06/14 04:34:18;;;;;;;4.40;4.00;;;;;;;19.79;59.69;93933.81;5033321;28;20068;-75
2022/06/14 04:37:00;;;;;;;6.85;4.70;;;;;;;19.87;59.71;93931.97;5035844;28;20621;-75
2022/06/14 04:39:43;;;;;;;6.22;4.03;;;;;;;19.80;60.75;93940.00;5035517;28;20064;-75
2022/06/14 04:42:25;;;;;;;4.65;4.00;;;;;;;19.85;59.25;93932.31;5033922;28;20029;-75
2022/06/14 04:45:01;;;;;;;9.98;5.00;;;;;;;19.60;59.40;93883.47;5035357;28;20100;-75
2022/06/14 04:47:32;;;;;;;4.85;3.67;;;;;;;19.98;59.53;93946.34;5036037;28;20179;-75
2022/06/14 04:50:17;;;;;;;8.13;4.10;;;;;;;20.08;58.14;93945.69;5035404;28;20042;-75
2022/06/14 04:52:56;;;;;;;4.17;3.47;;;;;;;20.20;58.10;93947.38;5034663;28;20072;-76
2022/06/14 04:55:48;;;;;;;5.75;4.10;;;;;;;19.94;59.56;93929.34;5041821;28;20067;-76
2022/06/14 04:58:24;;;;;;;5.80;3.55;;;;;;;20.11;59.43;93961.16;5033829;28;20053;-74
2022/06/14 05:00:59;;;;;;;5.82;3.90;;;;;;;20.22;59.60;93939.69;5037100;28;20052;-75
2022/06/14 05:03:27;;;;;;;4.72;4.25;;;;;;;20.43;57.62;93956.13;5043793;28;20057;-75
2022/06/14 05:06:16;;;;;;;5.25;4.10;;;;;;;20.49;57.90;93960.78;5044736;28;20041;-75
2022/06/14 05:09:00;;;;;;;4.88;3.63;;;;;;;20.50;58.03;93951.53;5038559;28;20042;-75
2022/06/14 05:12:10;;;;;;;6.97;4.13;;;;;;;20.72;57.51;93966.03;5037681;28;20413;-75
2022/06/14 05:14:56;;;;;;;3.95;3.45;;;;;;;20.53;57.22;93945.38;5027562;28;20049;-75
2022/06/14 05:17:35;;;;;;;5.60;4.22;;;;;;;20.68;56.70;93972.56;5033138;28;20067;-75
2022/06/14 05:20:16;;;;;;;6.32;4.43;;;;;;;20.62;56.18;93974.81;5031441;28;20056;-74
2022/06/14 05:23:06;;;;;;;7.18;4.68;;;;;;;20.56;56.74;93970.91;5030266;28;20057;-75
2022/06/14 05:26:01;;;;;;;6.88;3.78;;;;;;;20.68;56.20;93972.56;5030519;28;20042;-76
2022/06/14 05:28:52;;;;;;;4.77;3.83;;;;;;;20.55;56.05;93953.13;5025360;28;20049;-76
2022/06/14 05:31:37;;;;;;;6.63;3.65;;;;;;;20.57;55.90;93962.44;5041292;28;20022;-75
2022/06/14 05:34:20;;;;;;;5.17;3.90;;;;;;;20.60;55.80;93985.22;5034395;28;20021;-76
2022/06/14 05:37:01;;;;;;;7.10;4.45;;;;;;;20.55;56.08;93974.75;5034859;28;20273;-75
2022/06/14 05:39:37;;;;;;;5.15;3.90;;;;;;;20.53;56.02;93993.25;5033989;28;20040;-75
2022/06/14 05:42:13;;;;;;;6.65;4.05;;;;;;;20.53;56.20;93990.56;5033123;28;20045;-75
2022/06/14 05:44:44;;;;;;;6.05;3.83;;;;;;;20.25;57.17;93980.22;5035949;28;20038;-74
2022/06/14 05:47:26;;;;;;;4.82;3.58;;;;;;;20.45;57.26;93995.09;5024228;28;20042;-76
2022/06/14 05:49:58;;;;;;;5.03;3.92;;;;;;;20.15;57.28;93945.75;5032715;28;20044;-75
2022/06/14 05:52:56;;;;;;;4.97;4.03;;;;;;;20.41;58.17;94004.31;5033933;28;20134;-75
2022/06/14 05:55:36;;;;;;;4.38;3.97;;;;;;;20.45;57.29;93997.81;5030792;28;20067;-75
2022/06/14 05:58:13;;;;;;;5.00;4.22;;;;;;;20.41;56.84;94013.19;5031331;28;20026;-75
2022/06/14 06:00:46;;;;;;;6.85;4.30;;;;;;;20.28;57.10;94008.44;5031539;28;20030;-75
2022/06/14 06:03:38;;;;;;;4.45;3.90;;;;;;;20.32;57.19;94018.13;5035630;28;20096;-75
2022/06/14 06:06:17;;;;;;;4.70;4.22;;;;;;;20.41;57.16;94015.91;5034032;28;20037;-75
2022/06/14 06:08:48;;;;;;;5.15;4.60;;;;;;;20.53;56.90;94012.94;5040051;28;20054;-75
2022/06/14 06:11:16;;;;;;;10.25;4.22;;;;;;;20.55;56.45;94017.97;5032741;28;20029;-75
2022/06/14 06:13:50;;;;;;;4.07;3.67;;;;;;;20.54;56.31;94016.41;5034418;28;20163;-75
2022/06/14 06:16:25;;;;;;;5.83;4.10;;;;;;;20.46;56.75;94012.88;5041799;28;20411;-75
2022/06/14 06:18:59;;;;;;;4.72;4.22;;;;;;;20.49;56.39;94006.72;5032072;28;20025;-75
2022/06/14 06:21:38;;;;;;;8.48;5.15;;;;;;;20.44;56.83;94007.06;5041062;28;20109;-76
2022/06/14 06:24:19;;;;;;;9.40;5.70;;;;;;;20.57;57.15;94010.28;5031487;28;20557;-75
2022/06/14 06:27:01;;;;;;;6.97;5.60;;;;;;;20.67;57.21;94022.34;5032418;28;20034;-75
2022/06/14 06:29:40;;;;;;;4.97;4.10;;;;;;;20.57;56.36;94004.88;5038466;28;20041;-75
2022/06/14 06:32:07;;;;;;;6.28;5.00;;;;;;;20.52;55.62;94003.28;5032615;28;20206;-75
2022/06/14 06:34:34;;;;;;;4.90;4.00;;;;;;;20.71;56.59;94026.63;5027779;28;20044;-75
2022/06/14 06:37:30;;;;;;;7.88;5.25;;;;;;;20.58;56.70;94006.44;5035311;28;20021;-75
2022/06/14 06:40:01;;;;;;;16.75;5.25;;;;;;;20.81;56.21;94030.56;5025330;28;20073;-75
2022/06/14 06:42:44;;;;;;;6.30;4.68;;;;;;;20.67;54.95;94025.03;5030878;28;20056;-76
2022/06/14 06:45:26;;;;;;;6.72;5.32;;;;;;;20.72;56.11;94027.41;5032808;28;20559;-75
2022/06/14 06:47:51;;;;;;;12.65;5.20;;;;;;;20.71;56.64;94029.34;5032500;28;20034;-74
2022/06/14 06:50:24;;;;;;;5.88;4.43;;;;;;;20.59;56.13;94024.97;5030209;28;20116;-76
2022/06/14 06:53:05;;;;;;;5.18;4.68;;;;;;;20.64;56.69;94039.28;5032956;28;20097;-75
2022/06/14 06:55:44;;;;;;;5.97;4.25;;;;;;;20.69;56.49;94034.31;5033265;28;20090;-75
2022/06/14 06:58:34;;;;;;;5.60;4.88;;;;;;;20.49;57.59;94033.72;5040795;28;20762;-75
2022/06/14 07:01:25;;;;;;;5.60;5.03;;;;;;;20.65;57.35;94035.44;5039325;28;20033;-75
2022/06/14 07:03:56;;;;;;;5.68;4.63;;;;;;;20.66;58.32;94050.50;5035229;28;20395;-75
2022/06/14 07:06:29;;;;;;;5.88;5.13;;;;;;;20.45;56.90;93999.72;5033255;28;20060;-76
2022/06/14 07:09:00;;;;;;;5.85;4.55;;;;;;;20.76;56.94;94060.66;5034896;28;20144;-75
2022/06/14 07:11:47;;;;;;;6.57;4.57;;;;;;;20.41;56.05;94040.22;5034478;28;20041;-76
2022/06/14 07:14:38;;;;;;;6.28;4.18;;;;;;;20.29;56.09;94024.25;5034624;28;20137;-74
2022/06/14 07:17:17;;;;;;;6.03;5.07;;;;;;;20.47;57.25;94054.16;5034219;28;20046;-75
2022/06/14 07:19:56;;;;;;;6.50;5.15;;;;;;;20.32;58.57;94028.94;5032392;28;20131;-75
2022/06/14 07:22:28;;;;;;;5.40;4.70;;;;;;;20.50;58.13;94027.19;5032636;28;20395;-75
2022/06/14 07:25:15;;;;;;;5.47;4.97;;;;;;;20.48;55.51;94015.22;5035318;28;20022;-75
2022/06/14 07:27:48;;;;;;;5.13;4.25;;;;;;;20.73;56.38;94032.41;5031145;28;20049;-75
2022/06/14 07:30:39;;;;;;;4.13;3.72;;;;;;;20.97;55.82;94050.81;5034943;28;20064;-75
2022/06/14 07:33:05;;;;;;;7.28;4.38;;;;;;;20.97;54.92;94033.84;5032359;28;20052;-76
2022/06/14 07:35:57;;;;;;;5.72;4.75;;;;;;;21.05;53.69;94040.88;5033929;28;20033;-75
2022/06/14 07:38:39;;;;;;;5.13;4.10;;;;;;;20.94;53.69;94042.69;5031233;28;20044;-76
2022/06/14 07:41:37;;;;;;;5.30;4.45;;;;;;;20.99;55.14;94053.94;5047931;28;20085;-76
2022/06/14 07:44:19;;;;;;;6.43;4.18;;;;;;;21.12;54.89;94037.44;5034412;28;20045;-75
2022/06/14 07:46:56;;;;;;;7.90;4.95;;;;;;;21.38;54.97;94053.47;5035927;28;20042;-76
2022/06/14 07:49:41;;;;;;;4.90;4.38;;;;;;;21.38;55.19;94061.59;5035954;28;20038;-75
2022/06/14 07:52:43;;;;;;;4.97;3.90;;;;;;;21.37;55.96;94052.69;5031578;28;20044;-75
2022/06/14 07:55:23;;;;;;;5.05;4.10;;;;;;;21.35;55.44;94065.84;5036203;28;20009;-75
2022/06/14 07:57:56;;;;;;;4.90;4.40;;;;;;;21.27;54.68;94058.81;5038113;28;20021;-75
2022/06/14 08:03:37;;;;;;;5.47;4.68;;;;;;;21.42;54.64;94065.88;5030369;28;20065;-75
2022/06/14 08:06:16;;;;;;;6.63;4.93;;;;;;;21.52;55.06;94053.56;5032014;28;20033;-75
2022/06/14 08:08:44;;;;;;;6.20;4.70;;;;;;;21.55;55.64;94038.56;5035302;28;20037;-76
2022/06/14 08:11:23;;;;;;;7.22;5.28;;;;;;;21.53;56.01;94040.84;5037793;28;20037;-76
2022/06/14 08:13:56;;;;;;;5.43;4.53;;;;;;;21.63;54.45;94026.63;5037794;28;20045;-75
2022/06/14 08:16:24;;;;;;;5.50;3.92;;;;;;;21.85;54.90;94049.97;5034169;28;20025;-75
2022/06/14 08:19:05;;;;;;;7.20;4.97;;;;;;;21.65;53.94;94025.09;5038813;28;20021;-75
2022/06/14 08:21:46;;;;;;;5.18;4.40;;;;;;;21.85;53.63;94049.97;5034594;28;20046;-76
2022/06/14 08:24:17;;;;;;;8.82;4.30;;;;;;;21.77;53.98;94051.06;5034575;28;20077;-75
2022/06/14 08:26:54;;;;;;;5.15;4.05;;;;;;;21.68;53.30;94045.22;5035408;28;20037;-76
2022/06/14 08:29:25;;;;;;;5.45;4.10;;;;;;;21.70;53.43;94048.34;5043762;28;20621;-75
2022/06/14 08:32:15;;;;;;;4.95;4.38;;;;;;;21.88;52.97;94049.19;5033140;28;20041;-75
2022/06/14 08:34:46;;;;;;;5.25;3.97;;;;;;;21.98;54.39;94043.06;5035694;28;20033;-75
2022/06/14 08:37:40;;;;;;;4.72;4.28;;;;;;;22.05;51.55;94037.66;5032862;28;20499;-75
2022/06/14 08:40:41;;;;;;;4.88;4.40;;;;;;;22.18;52.00;94046.25;5029011;28;20048;-74
2022/06/14 08:43:12;;;;;;;5.18;4.22;;;;;;;22.20;51.02;94049.34;5031272;28;20046;-74
2022/06/14 08:45:38;;;;;;;5.45;3.42;;;;;;;22.26;50.98;94045.91;5032538;28;20022;-75
2022/06/14 08:48:08;;;;;;;7.30;3.70;;;;;;;22.01;51.33;94031.47;5029231;28;20080;-74
2022/06/14 08:50:44;;;;;;;3.60;3.30;;;;;;;22.10;51.72;94042.72;5034400;28;20029;-74
2022/06/14 08:53:15;;;;;;;4.45;4.05;;;;;;;22.17;50.00;94040.06;5034993;28;20052;-75
2022/06/14 08:56:17;;;;;;;4.75;3.92;;;;;;;21.98;50.21;94037.66;5036712;28;20054;-74
2022/06/14 08:59:16;;;;;;;4.07;3.67;;;;;;;21.74;52.19;94043.72;5039449;28;20045;-75
2022/06/14 09:01:59;;;;;;;6.78;3.83;;;;;;;21.63;52.55;94010.38;5034080;28;20057;-75
2022/06/14 09:04:34;;;;;;;6.68;4.97;;;;;;;21.76;52.65;94039.47;5031375;28;20114;-75
2022/06/14 09:07:11;;;;;;;4.85;4.22;;;;;;;21.67;52.16;94040.94;5032510;28;20014;-75
2022/06/14 09:09:52;;;;;;;6.32;4.47;;;;;;;21.68;51.32;94039.81;5033350;28;20037;-75
2022/06/14 09:12:26;;;;;;;6.22;3.97;;;;;;;21.71;51.09;94033.63;5032030;28;20255;-74
2022/06/14 09:15:16;;;;;;;5.00;3.90;;;;;;;21.76;51.95;94035.97;5034778;28;20046;-75
2022/06/14 09:17:47;;;;;;;6.78;3.70;;;;;;;21.77;51.83;94042.94;5034515;28;20053;-75
2022/06/14 09:20:39;;;;;;;4.95;4.35;;;;;;;21.94;51.75;94036.88;5034223;28;20061;-75
2022/06/14 09:23:40;;;;;;;4.68;4.25;;;;;;;21.97;52.17;94038.81;5034333;28;20053;-75
2022/06/14 09:26:41;;;;;;;4.78;4.07;;;;;;;21.98;51.54;94034.94;5032179;28;20037;-76
2022/06/14 09:29:28;;;;;;;4.20;3.78;;;;;;;21.95;52.46;94035.69;5024792;28;20052;-75
2022/06/14 09:33:09;;;;;;;6.13;3.90;;;;;;;22.06;50.87;94039.22;5030716;28;20038;-75
2022/06/14 09:35:57;;;;;;;5.28;3.90;;;;;;;21.94;51.71;94030.66;5031122;28;20061;-75
2022/06/14 09:38:41;;;;;;;5.38;4.43;;;;;;;21.77;50.77;94024.00;5032409;28;20045;-75
2022/06/14 09:41:23;;;;;;;4.80;4.05;;;;;;;21.92;52.86;94028.31;5030130;28;20034;-75
2022/06/14 09:43:57;;;;;;;5.15;4.35;;;;;;;21.96;51.97;94031.03;5032123;28;20466;-75
2022/06/14 09:46:48;;;;;;;6.05;3.85;;;;;;;21.92;51.92;94036.44;5039780;28;21301;-75
2022/06/14 09:49:42;;;;;;;5.78;5.25;;;;;;;21.70;52.37;94038.28;5032829;28;20014;-74
2022/06/14 09:52:30;;;;;;;10.43;3.85;;;;;;;21.80;52.43;94042.22;5036087;28;20088;-75
2022/06/14 09:55:17;;;;;;;4.07;3.67;;;;;;;21.81;53.57;94043.72;5032204;28;20022;-74
2022/06/14 09:58:10;;;;;;;5.05;4.35;;;;;;;21.91;53.19;94037.59;5034681;28;20057;-74
2022/06/14 10:00:45;;;;;;;4.38;3.97;;;;;;;22.06;52.32;94031.09;5034508;28;20030;-75
2022/06/14 10:03:52;;;;;;;6.75;4.05;;;;;;;22.20;52.74;94025.75;5034126;28;20060;-75
2022/06/14 10:06:23;;;;;;;4.28;3.88;;;;;;;22.33;51.86;94030.84;5030826;28;20100;-75
2022/06/14 10:09:01;;;;;;;4.45;3.92;;;;;;;22.49;51.61;94031.28;5033498;28;20038;-75
2022/06/14 10:11:51;;;;;;;9.02;4.97;;;;;;;21.99;51.07;94033.78;5033358;28;20064;-75
2022/06/14 10:14:27;;;;;;;5.28;3.75;;;;;;;22.07;51.35;94037.28;5033033;28;20071;-75
2022/06/14 10:17:01;;;;;;;4.57;3.13;;;;;;;21.72;47.40;94021.66;5031720;28;20053;-74
2022/06/14 10:19:53;;;;;;;3.28;2.47;;;;;;;21.58;44.69;94040.50;5032049;28;20048;-75
2022/06/14 10:22:26;;;;;;;2.70;2.50;;;;;;;21.32;43.15;94042.22;5029895;28;20690;-74
2022/06/14 10:24:57;;;;;;;4.45;2.55;;;;;;;21.30;43.00;94052.66;5027869;28;20121;-75
2022/06/14 10:30:39;;;;;;;4.18;2.72;;;;;;;21.53;45.03;94033.50;5033850;28;20036;-75
2022/06/14 10:33:28;;;;;;;5.43;2.92;;;;;;;21.27;44.07;94039.88;5029701;28;20044;-75
2022/06/14 10:36:44;;;;;;;7.45;3.22;;;;;;;21.29;42.58;94042.22;5034632;28;20148;-74
2022/06/14 10:39:28;;;;;;;2.58;2.33;;;;;;;21.06;43.61;94047.84;4981341;28;20528;-74
2022/06/14 10:42:08;;;;;;;5.68;2.88;;;;;;;21.18;43.94;94050.25;5006169;28;20576;-75
2022/06/14 10:44:43;;;;;;;2.97;2.08;;;;;;;20.84;43.16;94024.41;5005810;28;20038;-75
2022/06/14 10:47:24;;;;;;;3.33;2.65;;;;;;;20.77;42.37;94046.78;5002616;28;20068;-74
2022/06/14 10:49:58;;;;;;;2.08;1.80;;;;;;;20.86;43.74;94043.75;5011900;28;20489;-75
2022/06/14 10:52:48;;;;;;;3.47;2.60;;;;;;;20.63;45.19;94049.31;5007600;28;20082;-75
2022/06/14 10:55:33;;;;;;;2.97;2.63;;;;;;;19.98;46.96;94021.94;4999604;28;20121;-76
2022/06/14 10:58:11;;;;;;;2.65;2.20;;;;;;;20.49;45.55;94041.84;5012003;28;20480;-75
2022/06/14 11:00:52;;;;;;;3.15;2.17;;;;;;;20.68;46.53;94064.44;5007445;28;20518;-75
2022/06/14 11:03:23;;;;;;;4.88;2.38;;;;;;;20.68;46.30;94045.53;5003467;28;20156;-75
2022/06/14 11:06:08;;;;;;;7.28;2.47;;;;;;;20.97;49.01;94064.34;5007196;28;20045;-75
2022/06/14 11:09:04;;;;;;;3.33;2.70;;;;;;;21.31;52.07;94069.69;5006032;28;20120;-75
2022/06/14 11:11:47;;;;;;;3.67;2.90;;;;;;;21.50;52.68;94066.72;5006843;28;20125;-75
2022/06/14 11:14:15;;;;;;;4.05;2.55;;;;;;;21.52;51.02;94052.81;5005647;28;20362;-74
2022/06/14 11:17:22;;;;;;;4.28;2.40;;;;;;;21.59;50.36;94061.00;5009158;28;20076;-75
2022/06/14 11:19:50;;;;;;;2.65;2.15;;;;;;;21.56;51.41;94057.09;5009100;28;20051;-75
2022/06/14 11:22:15;;;;;;;2.28;2.03;;;;;;;21.45;50.44;94059.75;5007231;28;20053;-75
2022/06/14 11:25:02;;;;;;;2.85;2.47;;;;;;;21.30;50.75;94060.78;5009536;28;20036;-74
2022/06/14 11:27:56;;;;;;;7.38;3.20;;;;;;;21.36;51.28;94050.41;5008027;28;20041;-75
2022/06/14 11:30:47;;;;;;;2.60;2.40;;;;;;;21.63;50.31;94059.09;5002434;28;20579;-74
2022/06/14 11:33:15;;;;;;;3.17;2.72;;;;;;;21.71;50.38;94055.28;5014830;28;20050;-75
2022/06/14 11:35:58;;;;;;;4.70;2.95;;;;;;;21.74;50.03;94049.13;5006679;28;20341;-75
2022/06/14 11:38:29;;;;;;;3.38;2.63;;;;;;;21.75;50.03;94045.28;5009085;28;20038;-76
2022/06/14 11:41:04;;;;;;;3.08;2.47;;;;;;;21.93;50.83;94045.34;5005816;28;20553;-76
2022/06/14 11:43:47;;;;;;;;;;;;;;;21.97;50.89;94036.09;5009815;28;20033;-75
2022/06/14 11:46:30;;;;;;;2.47;2.28;;;;;;;22.18;50.39;94035.41;5010017;28;20412;-75
2022/06/14 11:49:10;;;;;;;2.80;2.50;;;;;;;22.23;49.83;94022.31;5011050;28;20578;-75
2022/06/14 11:51:38;;;;;;;3.50;2.90;;;;;;;21.94;50.82;93985.41;5008481;28;20067;-75
2022/06/14 11:54:39;;;;;;;3.70;3.22;;;;;;;22.51;50.56;94016.19;5011984;28;20056;-75
2022/06/14 11:57:26;;;;;;;3.38;3.08;;;;;;;22.64;48.69;94016.59;5008950;28;20565;-76
2022/06/14 12:00:06;;;;;;;3.17;2.88;;;;;;;22.61;50.38;94011.97;5009154;28;20408;-75
2022/06/14 12:02:53;;;;;;;3.97;3.35;;;;;;;22.40;47.25;94006.47;5007227;28;20037;-75
2022/06/14 12:05:24;;;;;;;2.97;2.70;;;;;;;22.71;47.18;94008.50;5003981;28;20037;-75
2022/06/14 12:08:02;;;;;;;4.53;2.70;;;;;;;22.64;47.33;93986.78;5002700;28;20126;-76
2022/06/14 12:10:33;;;;;;;2.95;2.65;;;;;;;22.84;45.95;93993.41;5005336;28;20042;-75
2022/06/14 12:13:11;;;;;;;4.68;2.40;;;;;;;23.06;45.54;93989.56;4999898;28;20431;-76
2022/06/14 12:16:03;;;;;;;3.67;2.55;;;;;;;23.28;45.13;93992.25;5000563;28;20077;-75
2022/06/14 12:18:32;;;;;;;4.05;3.17;;;;;;;23.16;44.34;93990.72;4984255;28;20096;-75
2022/06/14 12:21:21;;;;;;;3.03;1.95;;;;;;;22.68;44.97;93961.22;5001251;28;20120;-75
2022/06/14 12:23:56;;;;;;;4.13;2.20;;;;;;;22.80;44.84;93975.56;5001051;28;20414;-75
2022/06/14 12:26:36;;;;;;;2.53;2.25;;;;;;;22.74;44.37;93969.75;5004345;28;20065;-74
2022/06/14 12:29:08;;;;;;;2.20;2.00;;;;;;;23.02;43.60;94001.59;5005834;28;20149;-75
2022/06/14 12:31:39;;;;;;;4.13;2.03;;;;;;;22.80;43.90;93995.34;5007272;28;20034;-75
2022/06/14 12:34:18;;;;;;;3.97;2.47;;;;;;;22.60;48.37;93962.38;5009010;28;20021;-74
2022/06/14 12:36:49;;;;;;;3.35;2.90;;;;;;;22.98;48.14;93996.13;5008383;28;20037;-75
2022/06/14 12:39:20;;;;;;;3.47;2.85;;;;;;;22.77;49.45;93996.13;5007245;28;20519;-75